sensor_id;sensor_type;location;lat;lon;timestamp;P1;durP1;ratioP1;P2;durP2;ratioP2
59978;SDS011;45839;44.882;20.650;2022-11-28T00:00:59;17.20;;;12.40;;
59978;SDS011;45839;44.882;20.650;2022-11-28T00:03:25;18.25;;;12.30;;
59978;SDS011;45839;44.882;20.650;2022-11-28T00:05:51;18.20;;;12.25;;
59978;SDS011;45839;44.882;20.650;2022-11-28T00:08:17;18.60;;;12.45;;
59978;SDS011;45839;44.882;20.650;2022-11-28T00:10:43;18.52;;;12.55;;
59978;SDS011;45839;44.882;20.650;2022-11-28T00:13:09;18.33;;;12.15;;
59978;SDS011;45839;44.882;20.650;2022-11-28T00:15:36;18.60;;;12.38;;
59978;SDS011;45839;44.882;20.650;2022-11-28T00:18:02;19.58;;;13.10;;
59978;SDS011;45839;44.882;20.650;2022-11-28T00:20:29;17.05;;;11.50;;
59978;SDS011;45839;44.882;20.650;2022-11-28T00:22:55;16.27;;;11.65;;
59978;SDS011;45839;44.882;20.650;2022-11-28T00:25:21;19.13;;;11.93;;
59978;SDS011;45839;44.882;20.650;2022-11-28T00:27:47;16.42;;;11.73;;
59978;SDS011;45839;44.882;20.650;2022-11-28T00:30:14;16.95;;;11.77;;
59978;SDS011;45839;44.882;20.650;2022-11-28T00:32:40;17.17;;;11.88;;
59978;SDS011;45839;44.882;20.650;2022-11-28T00:35:06;15.73;;;10.95;;
59978;SDS011;45839;44.882;20.650;2022-11-28T00:37:32;14.73;;;10.85;;
59978;SDS011;45839;44.882;20.650;2022-11-28T00:39:58;15.85;;;11.18;;
59978;SDS011;45839;44.882;20.650;2022-11-28T00:42:24;15.48;;;11.00;;
59978;SDS011;45839;44.882;20.650;2022-11-28T00:44:50;15.95;;;11.27;;
59978;SDS011;45839;44.882;20.650;2022-11-28T00:47:16;15.63;;;11.23;;
59978;SDS011;45839;44.882;20.650;2022-11-28T00:49:42;14.65;;;10.73;;
59978;SDS011;45839;44.882;20.650;2022-11-28T00:52:09;14.57;;;11.05;;
59978;SDS011;45839;44.882;20.650;2022-11-28T00:54:35;14.32;;;10.27;;
59978;SDS011;45839;44.882;20.650;2022-11-28T00:57:01;14.95;;;10.10;;
59978;SDS011;45839;44.882;20.650;2022-11-28T00:59:27;14.32;;;10.43;;
59978;SDS011;45839;44.882;20.650;2022-11-28T01:01:53;14.45;;;10.75;;
59978;SDS011;45839;44.882;20.650;2022-11-28T01:04:19;14.05;;;10.50;;
59978;SDS011;45839;44.882;20.650;2022-11-28T01:06:46;14.98;;;10.13;;
59978;SDS011;45839;44.882;20.650;2022-11-28T01:09:14;13.85;;;10.30;;
59978;SDS011;45839;44.882;20.650;2022-11-28T01:11:41;14.35;;;10.55;;
59978;SDS011;45839;44.882;20.650;2022-11-28T01:14:07;14.27;;;10.40;;
59978;SDS011;45839;44.882;20.650;2022-11-28T01:16:34;14.88;;;10.48;;
59978;SDS011;45839;44.882;20.650;2022-11-28T01:19:00;15.00;;;10.95;;
59978;SDS011;45839;44.882;20.650;2022-11-28T01:21:26;15.90;;;12.07;;
59978;SDS011;45839;44.882;20.650;2022-11-28T01:23:52;15.45;;;11.32;;
59978;SDS011;45839;44.882;20.650;2022-11-28T01:26:20;17.30;;;12.18;;
59978;SDS011;45839;44.882;20.650;2022-11-28T01:28:46;17.45;;;12.15;;
59978;SDS011;45839;44.882;20.650;2022-11-28T01:31:13;18.83;;;13.43;;
59978;SDS011;45839;44.882;20.650;2022-11-28T01:33:40;17.30;;;11.75;;
59978;SDS011;45839;44.882;20.650;2022-11-28T01:36:06;18.60;;;12.48;;
59978;SDS011;45839;44.882;20.650;2022-11-28T01:38:33;17.95;;;12.95;;
59978;SDS011;45839;44.882;20.650;2022-11-28T01:40:59;18.35;;;12.35;;
59978;SDS011;45839;44.882;20.650;2022-11-28T01:43:25;17.02;;;12.20;;
59978;SDS011;45839;44.882;20.650;2022-11-28T01:45:52;18.05;;;12.18;;
59978;SDS011;45839;44.882;20.650;2022-11-28T01:48:51;18.13;;;12.30;;
59978;SDS011;45839;44.882;20.650;2022-11-28T01:51:11;20.83;;;13.57;;
59978;SDS011;45839;44.882;20.650;2022-11-28T01:53:40;20.40;;;13.05;;
59978;SDS011;45839;44.882;20.650;2022-11-28T01:56:08;19.35;;;13.43;;
59978;SDS011;45839;44.882;20.650;2022-11-28T01:58:38;19.88;;;12.98;;
59978;SDS011;45839;44.882;20.650;2022-11-28T02:01:05;18.05;;;12.38;;
59978;SDS011;45839;44.882;20.650;2022-11-28T02:03:38;18.45;;;12.27;;
59978;SDS011;45839;44.882;20.650;2022-11-28T02:06:05;20.70;;;12.98;;
59978;SDS011;45839;44.882;20.650;2022-11-28T02:08:33;19.27;;;12.70;;
59978;SDS011;45839;44.882;20.650;2022-11-28T02:11:05;18.48;;;12.40;;
59978;SDS011;45839;44.882;20.650;2022-11-28T02:34:28;18.02;;;12.05;;
59978;SDS011;45839;44.882;20.650;2022-11-28T02:36:59;15.68;;;10.68;;
59978;SDS011;45839;44.882;20.650;2022-11-28T02:39:30;13.98;;;9.95;;
59978;SDS011;45839;44.882;20.650;2022-11-28T02:42:03;16.00;;;10.93;;
59978;SDS011;45839;44.882;20.650;2022-11-28T02:44:34;14.10;;;10.43;;
59978;SDS011;45839;44.882;20.650;2022-11-28T02:49:32;14.73;;;10.75;;
59978;SDS011;45839;44.882;20.650;2022-11-28T02:52:05;14.48;;;10.18;;
59978;SDS011;45839;44.882;20.650;2022-11-28T02:54:34;15.25;;;10.02;;
59978;SDS011;45839;44.882;20.650;2022-11-28T02:57:01;16.60;;;10.43;;
59978;SDS011;45839;44.882;20.650;2022-11-28T03:01:56;15.70;;;10.90;;
59978;SDS011;45839;44.882;20.650;2022-11-28T03:04:24;14.68;;;10.20;;
59978;SDS011;45839;44.882;20.650;2022-11-28T03:07:04;14.25;;;10.45;;
59978;SDS011;45839;44.882;20.650;2022-11-28T03:12:33;14.15;;;9.98;;
59978;SDS011;45839;44.882;20.650;2022-11-28T03:15:01;14.07;;;9.82;;
59978;SDS011;45839;44.882;20.650;2022-11-28T03:25:13;14.95;;;10.50;;
59978;SDS011;45839;44.882;20.650;2022-11-28T03:27:44;13.82;;;9.57;;
59978;SDS011;45839;44.882;20.650;2022-11-28T03:30:13;14.38;;;10.38;;
59978;SDS011;45839;44.882;20.650;2022-11-28T03:32:40;15.25;;;9.95;;
59978;SDS011;45839;44.882;20.650;2022-11-28T03:35:09;13.95;;;10.15;;
59978;SDS011;45839;44.882;20.650;2022-11-28T03:37:38;14.60;;;10.63;;
59978;SDS011;45839;44.882;20.650;2022-11-28T03:40:06;14.75;;;10.38;;
59978;SDS011;45839;44.882;20.650;2022-11-28T03:42:35;13.20;;;9.50;;
59978;SDS011;45839;44.882;20.650;2022-11-28T03:47:41;13.50;;;10.23;;
59978;SDS011;45839;44.882;20.650;2022-11-28T03:50:10;13.50;;;10.05;;
59978;SDS011;45839;44.882;20.650;2022-11-28T03:52:40;15.55;;;10.85;;
59978;SDS011;45839;44.882;20.650;2022-11-28T03:55:18;13.90;;;9.88;;
59978;SDS011;45839;44.882;20.650;2022-11-28T03:57:48;13.80;;;10.75;;
59978;SDS011;45839;44.882;20.650;2022-11-28T04:00:16;13.35;;;10.00;;
59978;SDS011;45839;44.882;20.650;2022-11-28T04:02:55;14.57;;;10.45;;
59978;SDS011;45839;44.882;20.650;2022-11-28T04:05:28;13.82;;;10.23;;
59978;SDS011;45839;44.882;20.650;2022-11-28T04:10:37;13.30;;;9.85;;
59978;SDS011;45839;44.882;20.650;2022-11-28T04:20:46;13.63;;;9.52;;
59978;SDS011;45839;44.882;20.650;2022-11-28T04:23:15;13.50;;;9.45;;
59978;SDS011;45839;44.882;20.650;2022-11-28T04:25:44;15.30;;;10.63;;
59978;SDS011;45839;44.882;20.650;2022-11-28T04:28:12;13.82;;;9.68;;
59978;SDS011;45839;44.882;20.650;2022-11-28T04:30:40;14.68;;;9.93;;
59978;SDS011;45839;44.882;20.650;2022-11-28T04:33:07;14.00;;;9.73;;
59978;SDS011;45839;44.882;20.650;2022-11-28T04:35:40;13.50;;;10.05;;
59978;SDS011;45839;44.882;20.650;2022-11-28T04:38:08;13.52;;;10.20;;
59978;SDS011;45839;44.882;20.650;2022-11-28T04:40:40;12.80;;;8.63;;
59978;SDS011;45839;44.882;20.650;2022-11-28T04:43:08;11.73;;;8.35;;
59978;SDS011;45839;44.882;20.650;2022-11-28T04:45:37;11.55;;;8.32;;
59978;SDS011;45839;44.882;20.650;2022-11-28T04:48:04;12.55;;;9.00;;
59978;SDS011;45839;44.882;20.650;2022-11-28T04:50:33;11.80;;;8.23;;
59978;SDS011;45839;44.882;20.650;2022-11-28T04:58:01;12.32;;;8.25;;
59978;SDS011;45839;44.882;20.650;2022-11-28T05:00:29;13.05;;;8.75;;
59978;SDS011;45839;44.882;20.650;2022-11-28T05:02:57;15.68;;;9.40;;
59978;SDS011;45839;44.882;20.650;2022-11-28T05:05:24;17.42;;;9.73;;
59978;SDS011;45839;44.882;20.650;2022-11-28T05:07:52;15.27;;;9.20;;
59978;SDS011;45839;44.882;20.650;2022-11-28T05:10:18;13.50;;;8.98;;
59978;SDS011;45839;44.882;20.650;2022-11-28T05:12:44;16.33;;;9.55;;
59978;SDS011;45839;44.882;20.650;2022-11-28T05:15:11;17.08;;;10.43;;
59978;SDS011;45839;44.882;20.650;2022-11-28T05:17:37;15.73;;;10.07;;
59978;SDS011;45839;44.882;20.650;2022-11-28T05:20:04;17.63;;;12.48;;
59978;SDS011;45839;44.882;20.650;2022-11-28T05:22:30;17.50;;;11.93;;
59978;SDS011;45839;44.882;20.650;2022-11-28T05:24:56;18.42;;;10.98;;
59978;SDS011;45839;44.882;20.650;2022-11-28T05:27:22;27.25;;;11.25;;
59978;SDS011;45839;44.882;20.650;2022-11-28T05:29:48;15.38;;;9.68;;
59978;SDS011;45839;44.882;20.650;2022-11-28T05:32:15;14.70;;;9.50;;
59978;SDS011;45839;44.882;20.650;2022-11-28T05:34:41;12.80;;;8.18;;
59978;SDS011;45839;44.882;20.650;2022-11-28T05:37:07;13.75;;;8.65;;
59978;SDS011;45839;44.882;20.650;2022-11-28T05:39:33;14.15;;;9.10;;
59978;SDS011;45839;44.882;20.650;2022-11-28T05:41:59;14.05;;;9.40;;
59978;SDS011;45839;44.882;20.650;2022-11-28T05:44:25;15.82;;;8.73;;
59978;SDS011;45839;44.882;20.650;2022-11-28T05:46:51;15.32;;;8.63;;
59978;SDS011;45839;44.882;20.650;2022-11-28T05:49:17;14.52;;;8.70;;
59978;SDS011;45839;44.882;20.650;2022-11-28T05:51:46;13.00;;;8.40;;
59978;SDS011;45839;44.882;20.650;2022-11-28T05:54:12;13.63;;;8.95;;
59978;SDS011;45839;44.882;20.650;2022-11-28T05:56:38;15.00;;;10.00;;
59978;SDS011;45839;44.882;20.650;2022-11-28T05:59:04;18.40;;;11.73;;
59978;SDS011;45839;44.882;20.650;2022-11-28T06:01:30;14.15;;;8.85;;
59978;SDS011;45839;44.882;20.650;2022-11-28T06:03:56;16.63;;;9.02;;
59978;SDS011;45839;44.882;20.650;2022-11-28T06:06:25;11.90;;;8.48;;
59978;SDS011;45839;44.882;20.650;2022-11-28T06:08:51;12.88;;;8.60;;
59978;SDS011;45839;44.882;20.650;2022-11-28T06:11:18;11.82;;;8.18;;
59978;SDS011;45839;44.882;20.650;2022-11-28T06:13:45;12.88;;;8.57;;
59978;SDS011;45839;44.882;20.650;2022-11-28T06:16:16;15.93;;;9.05;;
59978;SDS011;45839;44.882;20.650;2022-11-28T06:18:42;17.65;;;9.88;;
59978;SDS011;45839;44.882;20.650;2022-11-28T06:21:09;17.25;;;10.30;;
59978;SDS011;45839;44.882;20.650;2022-11-28T06:23:35;13.60;;;8.65;;
59978;SDS011;45839;44.882;20.650;2022-11-28T06:26:06;13.50;;;8.40;;
59978;SDS011;45839;44.882;20.650;2022-11-28T06:28:32;14.75;;;8.25;;
59978;SDS011;45839;44.882;20.650;2022-11-28T06:30:58;22.45;;;9.82;;
59978;SDS011;45839;44.882;20.650;2022-11-28T06:33:25;24.60;;;12.95;;
59978;SDS011;45839;44.882;20.650;2022-11-28T06:35:51;22.77;;;12.20;;
59978;SDS011;45839;44.882;20.650;2022-11-28T06:38:17;44.38;;;16.92;;
59978;SDS011;45839;44.882;20.650;2022-11-28T06:40:43;37.88;;;20.45;;
59978;SDS011;45839;44.882;20.650;2022-11-28T06:43:09;33.13;;;18.88;;
59978;SDS011;45839;44.882;20.650;2022-11-28T06:45:35;46.30;;;22.80;;
59978;SDS011;45839;44.882;20.650;2022-11-28T06:48:01;31.88;;;18.73;;
59978;SDS011;45839;44.882;20.650;2022-11-28T06:50:28;35.67;;;20.15;;
59978;SDS011;45839;44.882;20.650;2022-11-28T06:52:54;40.35;;;21.35;;
59978;SDS011;45839;44.882;20.650;2022-11-28T06:55:20;33.70;;;20.13;;
59978;SDS011;45839;44.882;20.650;2022-11-28T06:57:46;35.85;;;20.63;;
59978;SDS011;45839;44.882;20.650;2022-11-28T07:00:12;38.13;;;22.35;;
59978;SDS011;45839;44.882;20.650;2022-11-28T07:02:38;42.33;;;24.20;;
59978;SDS011;45839;44.882;20.650;2022-11-28T07:05:04;46.30;;;26.08;;
59978;SDS011;45839;44.882;20.650;2022-11-28T07:07:30;41.72;;;25.40;;
59978;SDS011;45839;44.882;20.650;2022-11-28T07:09:56;45.72;;;27.85;;
59978;SDS011;45839;44.882;20.650;2022-11-28T07:12:22;47.00;;;27.75;;
59978;SDS011;45839;44.882;20.650;2022-11-28T07:14:48;44.50;;;27.10;;
59978;SDS011;45839;44.882;20.650;2022-11-28T07:17:14;43.25;;;25.40;;
59978;SDS011;45839;44.882;20.650;2022-11-28T07:19:41;39.38;;;22.15;;
59978;SDS011;45839;44.882;20.650;2022-11-28T07:22:08;34.10;;;19.60;;
59978;SDS011;45839;44.882;20.650;2022-11-28T07:24:35;25.85;;;17.10;;
59978;SDS011;45839;44.882;20.650;2022-11-28T07:27:01;28.02;;;15.82;;
59978;SDS011;45839;44.882;20.650;2022-11-28T07:29:27;26.92;;;15.35;;
59978;SDS011;45839;44.882;20.650;2022-11-28T07:32:00;23.30;;;15.18;;
59978;SDS011;45839;44.882;20.650;2022-11-28T07:34:26;30.13;;;18.58;;
59978;SDS011;45839;44.882;20.650;2022-11-28T07:36:52;36.35;;;18.92;;
59978;SDS011;45839;44.882;20.650;2022-11-28T07:39:18;36.95;;;20.25;;
59978;SDS011;45839;44.882;20.650;2022-11-28T07:41:44;45.83;;;22.10;;
59978;SDS011;45839;44.882;20.650;2022-11-28T07:44:10;33.17;;;19.73;;
59978;SDS011;45839;44.882;20.650;2022-11-28T07:46:37;38.42;;;20.55;;
59978;SDS011;45839;44.882;20.650;2022-11-28T07:49:03;43.55;;;22.75;;
59978;SDS011;45839;44.882;20.650;2022-11-28T07:51:30;46.33;;;24.45;;
59978;SDS011;45839;44.882;20.650;2022-11-28T07:53:56;35.08;;;21.65;;
59978;SDS011;45839;44.882;20.650;2022-11-28T07:56:26;47.03;;;27.55;;
59978;SDS011;45839;44.882;20.650;2022-11-28T07:58:53;44.92;;;25.23;;
59978;SDS011;45839;44.882;20.650;2022-11-28T08:01:20;44.85;;;25.08;;
59978;SDS011;45839;44.882;20.650;2022-11-28T08:03:47;34.85;;;21.15;;
59978;SDS011;45839;44.882;20.650;2022-11-28T08:06:13;34.17;;;20.58;;
59978;SDS011;45839;44.882;20.650;2022-11-28T08:08:40;32.95;;;19.60;;
59978;SDS011;45839;44.882;20.650;2022-11-28T08:11:06;31.55;;;20.58;;
59978;SDS011;45839;44.882;20.650;2022-11-28T08:13:33;30.35;;;20.20;;
59978;SDS011;45839;44.882;20.650;2022-11-28T08:16:06;33.17;;;20.02;;
59978;SDS011;45839;44.882;20.650;2022-11-28T08:18:33;30.65;;;18.92;;
59978;SDS011;45839;44.882;20.650;2022-11-28T08:21:06;25.73;;;16.42;;
59978;SDS011;45839;44.882;20.650;2022-11-28T08:26:01;21.90;;;15.50;;
59978;SDS011;45839;44.882;20.650;2022-11-28T08:28:27;24.60;;;15.65;;
59978;SDS011;45839;44.882;20.650;2022-11-28T08:30:53;22.48;;;15.77;;
59978;SDS011;45839;44.882;20.650;2022-11-28T08:33:20;26.58;;;17.58;;
59978;SDS011;45839;44.882;20.650;2022-11-28T08:35:46;20.85;;;14.45;;
59978;SDS011;45839;44.882;20.650;2022-11-28T08:38:12;17.30;;;12.43;;
59978;SDS011;45839;44.882;20.650;2022-11-28T08:40:38;16.48;;;11.93;;
59978;SDS011;45839;44.882;20.650;2022-11-28T08:43:04;15.35;;;11.10;;
59978;SDS011;45839;44.882;20.650;2022-11-28T08:45:33;15.13;;;10.25;;
59978;SDS011;45839;44.882;20.650;2022-11-28T08:47:59;15.10;;;10.18;;
59978;SDS011;45839;44.882;20.650;2022-11-28T08:50:25;15.38;;;10.73;;
59978;SDS011;45839;44.882;20.650;2022-11-28T08:52:51;14.32;;;9.32;;
59978;SDS011;45839;44.882;20.650;2022-11-28T08:55:17;12.77;;;8.93;;
59978;SDS011;45839;44.882;20.650;2022-11-28T08:57:43;13.13;;;9.40;;
59978;SDS011;45839;44.882;20.650;2022-11-28T09:00:09;15.07;;;10.82;;
59978;SDS011;45839;44.882;20.650;2022-11-28T09:02:35;14.27;;;10.20;;
59978;SDS011;45839;44.882;20.650;2022-11-28T09:05:01;15.23;;;9.93;;
59978;SDS011;45839;44.882;20.650;2022-11-28T09:07:27;16.40;;;10.93;;
59978;SDS011;45839;44.882;20.650;2022-11-28T09:09:53;15.82;;;11.15;;
59978;SDS011;45839;44.882;20.650;2022-11-28T09:12:19;15.02;;;10.57;;
59978;SDS011;45839;44.882;20.650;2022-11-28T09:14:45;15.10;;;10.00;;
59978;SDS011;45839;44.882;20.650;2022-11-28T09:17:12;12.80;;;9.27;;
59978;SDS011;45839;44.882;20.650;2022-11-28T09:19:39;15.07;;;10.68;;
59978;SDS011;45839;44.882;20.650;2022-11-28T09:22:05;15.40;;;10.00;;
59978;SDS011;45839;44.882;20.650;2022-11-28T09:24:31;14.80;;;9.68;;
59978;SDS011;45839;44.882;20.650;2022-11-28T09:26:58;14.70;;;9.50;;
59978;SDS011;45839;44.882;20.650;2022-11-28T09:29:24;12.80;;;9.75;;
59978;SDS011;45839;44.882;20.650;2022-11-28T09:31:50;15.32;;;10.85;;
59978;SDS011;45839;44.882;20.650;2022-11-28T09:34:16;15.35;;;11.40;;
59978;SDS011;45839;44.882;20.650;2022-11-28T09:36:42;14.57;;;11.00;;
59978;SDS011;45839;44.882;20.650;2022-11-28T09:39:08;14.65;;;11.05;;
59978;SDS011;45839;44.882;20.650;2022-11-28T09:44:01;15.68;;;10.63;;
59978;SDS011;45839;44.882;20.650;2022-11-28T09:46:30;13.70;;;10.32;;
59978;SDS011;45839;44.882;20.650;2022-11-28T09:48:59;14.95;;;10.35;;
59978;SDS011;45839;44.882;20.650;2022-11-28T09:56:37;15.45;;;10.90;;
59978;SDS011;45839;44.882;20.650;2022-11-28T09:59:03;16.08;;;11.18;;
59978;SDS011;45839;44.882;20.650;2022-11-28T10:01:41;13.88;;;10.25;;
59978;SDS011;45839;44.882;20.650;2022-11-28T10:09:15;13.98;;;9.30;;
59978;SDS011;45839;44.882;20.650;2022-11-28T10:14:20;11.77;;;8.10;;
59978;SDS011;45839;44.882;20.650;2022-11-28T10:19:17;10.38;;;7.30;;
59978;SDS011;45839;44.882;20.650;2022-11-28T10:21:46;13.25;;;7.20;;
59978;SDS011;45839;44.882;20.650;2022-11-28T10:24:18;11.52;;;7.20;;
59978;SDS011;45839;44.882;20.650;2022-11-28T10:26:47;10.57;;;7.40;;
59978;SDS011;45839;44.882;20.650;2022-11-28T10:32:00;10.25;;;7.18;;
59978;SDS011;45839;44.882;20.650;2022-11-28T10:34:28;10.68;;;6.97;;
59978;SDS011;45839;44.882;20.650;2022-11-28T10:37:05;14.25;;;7.13;;
59978;SDS011;45839;44.882;20.650;2022-11-28T10:39:33;10.45;;;7.20;;
59978;SDS011;45839;44.882;20.650;2022-11-28T10:42:04;10.98;;;7.60;;
59978;SDS011;45839;44.882;20.650;2022-11-28T10:55:24;12.82;;;8.10;;
59978;SDS011;45839;44.882;20.650;2022-11-28T11:00:41;14.60;;;8.60;;
59978;SDS011;45839;44.882;20.650;2022-11-28T11:03:10;13.38;;;7.63;;
59978;SDS011;45839;44.882;20.650;2022-11-28T11:05:38;11.63;;;7.13;;
59978;SDS011;45839;44.882;20.650;2022-11-28T11:08:12;10.00;;;7.03;;
59978;SDS011;45839;44.882;20.650;2022-11-28T11:10:49;10.48;;;7.20;;
59978;SDS011;45839;44.882;20.650;2022-11-28T11:15:43;9.65;;;5.88;;
59978;SDS011;45839;44.882;20.650;2022-11-28T11:23:38;9.15;;;6.00;;
59978;SDS011;45839;44.882;20.650;2022-11-28T11:26:04;9.48;;;6.25;;
59978;SDS011;45839;44.882;20.650;2022-11-28T11:28:44;10.43;;;6.55;;
59978;SDS011;45839;44.882;20.650;2022-11-28T11:31:14;11.10;;;6.82;;
59978;SDS011;45839;44.882;20.650;2022-11-28T11:33:40;12.38;;;7.47;;
59978;SDS011;45839;44.882;20.650;2022-11-28T11:36:23;11.30;;;7.25;;
59978;SDS011;45839;44.882;20.650;2022-11-28T11:38:49;10.18;;;7.18;;
59978;SDS011;45839;44.882;20.650;2022-11-28T11:41:23;12.00;;;7.25;;
59978;SDS011;45839;44.882;20.650;2022-11-28T11:43:52;10.45;;;5.60;;
59978;SDS011;45839;44.882;20.650;2022-11-28T11:46:18;8.70;;;6.28;;
59978;SDS011;45839;44.882;20.650;2022-11-28T11:51:20;10.05;;;6.80;;
59978;SDS011;45839;44.882;20.650;2022-11-28T11:53:47;11.35;;;7.03;;
59978;SDS011;45839;44.882;20.650;2022-11-28T11:56:13;9.63;;;6.60;;
59978;SDS011;45839;44.882;20.650;2022-11-28T11:58:44;9.85;;;6.60;;
59978;SDS011;45839;44.882;20.650;2022-11-28T12:01:11;11.35;;;7.07;;
59978;SDS011;45839;44.882;20.650;2022-11-28T12:03:39;11.10;;;6.57;;
59978;SDS011;45839;44.882;20.650;2022-11-28T12:06:10;10.90;;;7.20;;
59978;SDS011;45839;44.882;20.650;2022-11-28T12:13:43;12.93;;;9.27;;
59978;SDS011;45839;44.882;20.650;2022-11-28T12:23:55;11.30;;;6.90;;
59978;SDS011;45839;44.882;20.650;2022-11-28T12:26:41;8.68;;;6.35;;
59978;SDS011;45839;44.882;20.650;2022-11-28T12:36:58;8.70;;;5.38;;
59978;SDS011;45839;44.882;20.650;2022-11-28T12:47:14;9.07;;;6.30;;
59978;SDS011;45839;44.882;20.650;2022-11-28T13:00:09;12.73;;;7.32;;
59978;SDS011;45839;44.882;20.650;2022-11-28T13:12:41;10.95;;;7.60;;
59978;SDS011;45839;44.882;20.650;2022-11-28T13:15:19;10.43;;;7.00;;
59978;SDS011;45839;44.882;20.650;2022-11-28T13:30:28;10.90;;;6.75;;
59978;SDS011;45839;44.882;20.650;2022-11-28T13:35:22;9.32;;;6.00;;
59978;SDS011;45839;44.882;20.650;2022-11-28T13:42:52;8.73;;;5.90;;
59978;SDS011;45839;44.882;20.650;2022-11-28T13:45:22;12.50;;;6.70;;
59978;SDS011;45839;44.882;20.650;2022-11-28T13:47:50;11.95;;;7.35;;
59978;SDS011;45839;44.882;20.650;2022-11-28T13:58:09;11.07;;;6.65;;
59978;SDS011;45839;44.882;20.650;2022-11-28T14:00:36;9.63;;;6.32;;
59978;SDS011;45839;44.882;20.650;2022-11-28T14:03:02;14.32;;;6.70;;
59978;SDS011;45839;44.882;20.650;2022-11-28T14:05:37;10.32;;;6.75;;
59978;SDS011;45839;44.882;20.650;2022-11-28T14:08:04;9.15;;;6.40;;
59978;SDS011;45839;44.882;20.650;2022-11-28T14:26:45;10.75;;;7.25;;
59978;SDS011;45839;44.882;20.650;2022-11-28T14:29:22;11.07;;;7.00;;
59978;SDS011;45839;44.882;20.650;2022-11-28T14:31:48;11.20;;;7.60;;
59978;SDS011;45839;44.882;20.650;2022-11-28T14:39:49;11.27;;;7.18;;
59978;SDS011;45839;44.882;20.650;2022-11-28T14:47:14;16.05;;;9.98;;
59978;SDS011;45839;44.882;20.650;2022-11-28T14:49:41;13.00;;;8.88;;
59978;SDS011;45839;44.882;20.650;2022-11-28T14:52:09;11.95;;;7.82;;
59978;SDS011;45839;44.882;20.650;2022-11-28T14:54:42;11.45;;;7.68;;
59978;SDS011;45839;44.882;20.650;2022-11-28T14:57:19;12.95;;;8.52;;
59978;SDS011;45839;44.882;20.650;2022-11-28T14:59:46;14.70;;;8.90;;
59978;SDS011;45839;44.882;20.650;2022-11-28T15:15:23;71.18;;;51.35;;
59978;SDS011;45839;44.882;20.650;2022-11-28T15:17:51;54.05;;;43.78;;
59978;SDS011;45839;44.882;20.650;2022-11-28T15:20:25;49.80;;;37.78;;
59978;SDS011;45839;44.882;20.650;2022-11-28T15:22:52;18.88;;;14.68;;
59978;SDS011;45839;44.882;20.650;2022-11-28T15:25:19;16.58;;;10.63;;
59978;SDS011;45839;44.882;20.650;2022-11-28T15:27:45;15.20;;;10.73;;
59978;SDS011;45839;44.882;20.650;2022-11-28T15:30:16;18.63;;;11.10;;
59978;SDS011;45839;44.882;20.650;2022-11-28T15:32:42;17.48;;;11.25;;
59978;SDS011;45839;44.882;20.650;2022-11-28T15:35:09;14.57;;;9.98;;
59978;SDS011;45839;44.882;20.650;2022-11-28T15:37:38;12.90;;;8.77;;
59978;SDS011;45839;44.882;20.650;2022-11-28T15:40:04;13.38;;;8.82;;
59978;SDS011;45839;44.882;20.650;2022-11-28T15:42:31;13.98;;;8.80;;
59978;SDS011;45839;44.882;20.650;2022-11-28T15:45:11;12.52;;;9.07;;
59978;SDS011;45839;44.882;20.650;2022-11-28T15:47:39;14.07;;;9.13;;
59978;SDS011;45839;44.882;20.650;2022-11-28T15:52:35;13.80;;;9.77;;
59978;SDS011;45839;44.882;20.650;2022-11-28T15:55:01;15.57;;;11.60;;
59978;SDS011;45839;44.882;20.650;2022-11-28T15:57:27;15.18;;;10.38;;
59978;SDS011;45839;44.882;20.650;2022-11-28T15:59:56;15.98;;;10.32;;
59978;SDS011;45839;44.882;20.650;2022-11-28T16:02:32;14.10;;;8.93;;
59978;SDS011;45839;44.882;20.650;2022-11-28T16:05:10;12.65;;;9.52;;
59978;SDS011;45839;44.882;20.650;2022-11-28T16:07:40;15.02;;;9.73;;
59978;SDS011;45839;44.882;20.650;2022-11-28T16:10:07;14.00;;;10.13;;
59978;SDS011;45839;44.882;20.650;2022-11-28T16:12:41;13.73;;;9.75;;
59978;SDS011;45839;44.882;20.650;2022-11-28T16:15:15;14.57;;;9.73;;
59978;SDS011;45839;44.882;20.650;2022-11-28T16:20:16;15.85;;;9.10;;
59978;SDS011;45839;44.882;20.650;2022-11-28T16:22:45;15.82;;;9.63;;
59978;SDS011;45839;44.882;20.650;2022-11-28T16:27:43;13.38;;;9.13;;
59978;SDS011;45839;44.882;20.650;2022-11-28T16:32:48;14.77;;;8.95;;
59978;SDS011;45839;44.882;20.650;2022-11-28T16:35:23;14.15;;;9.40;;
59978;SDS011;45839;44.882;20.650;2022-11-28T16:37:50;14.88;;;9.40;;
59978;SDS011;45839;44.882;20.650;2022-11-28T16:40:19;14.20;;;9.90;;
59978;SDS011;45839;44.882;20.650;2022-11-28T16:42:55;13.75;;;8.98;;
59978;SDS011;45839;44.882;20.650;2022-11-28T16:45:24;12.43;;;8.68;;
59978;SDS011;45839;44.882;20.650;2022-11-28T16:50:26;14.80;;;10.60;;
59978;SDS011;45839;44.882;20.650;2022-11-28T16:52:52;15.50;;;11.57;;
59978;SDS011;45839;44.882;20.650;2022-11-28T16:58:01;14.13;;;10.13;;
59978;SDS011;45839;44.882;20.650;2022-11-28T17:00:34;14.32;;;9.88;;
59978;SDS011;45839;44.882;20.650;2022-11-28T17:03:02;14.68;;;9.07;;
59978;SDS011;45839;44.882;20.650;2022-11-28T17:05:28;11.93;;;8.82;;
59978;SDS011;45839;44.882;20.650;2022-11-28T17:07:55;12.25;;;8.80;;
59978;SDS011;45839;44.882;20.650;2022-11-28T17:10:21;12.98;;;8.45;;
59978;SDS011;45839;44.882;20.650;2022-11-28T17:12:49;13.48;;;9.27;;
59978;SDS011;45839;44.882;20.650;2022-11-28T17:15:17;13.38;;;8.82;;
59978;SDS011;45839;44.882;20.650;2022-11-28T17:17:44;13.43;;;9.52;;
59978;SDS011;45839;44.882;20.650;2022-11-28T17:20:10;12.70;;;8.60;;
59978;SDS011;45839;44.882;20.650;2022-11-28T17:22:38;10.63;;;7.70;;
59978;SDS011;45839;44.882;20.650;2022-11-28T17:25:05;12.18;;;8.43;;
59978;SDS011;45839;44.882;20.650;2022-11-28T17:27:31;12.10;;;8.23;;
59978;SDS011;45839;44.882;20.650;2022-11-28T17:29:58;14.55;;;10.52;;
59978;SDS011;45839;44.882;20.650;2022-11-28T17:32:24;15.30;;;9.95;;
59978;SDS011;45839;44.882;20.650;2022-11-28T17:34:50;16.27;;;9.27;;
59978;SDS011;45839;44.882;20.650;2022-11-28T17:37:16;14.48;;;8.75;;
59978;SDS011;45839;44.882;20.650;2022-11-28T17:39:42;12.98;;;9.65;;
59978;SDS011;45839;44.882;20.650;2022-11-28T17:42:28;13.75;;;10.02;;
59978;SDS011;45839;44.882;20.650;2022-11-28T17:44:54;15.15;;;10.32;;
59978;SDS011;45839;44.882;20.650;2022-11-28T17:47:20;14.98;;;10.82;;
59978;SDS011;45839;44.882;20.650;2022-11-28T17:49:47;14.25;;;10.48;;
59978;SDS011;45839;44.882;20.650;2022-11-28T17:52:14;14.48;;;9.68;;
59978;SDS011;45839;44.882;20.650;2022-11-28T17:54:40;13.85;;;10.43;;
59978;SDS011;45839;44.882;20.650;2022-11-28T17:57:07;14.68;;;9.50;;
59978;SDS011;45839;44.882;20.650;2022-11-28T17:59:34;14.60;;;9.43;;
59978;SDS011;45839;44.882;20.650;2022-11-28T18:02:01;12.50;;;9.00;;
59978;SDS011;45839;44.882;20.650;2022-11-28T18:04:27;14.35;;;9.77;;
59978;SDS011;45839;44.882;20.650;2022-11-28T18:06:53;12.48;;;8.85;;
59978;SDS011;45839;44.882;20.650;2022-11-28T18:09:19;12.55;;;8.88;;
59978;SDS011;45839;44.882;20.650;2022-11-28T18:11:45;13.25;;;9.65;;
59978;SDS011;45839;44.882;20.650;2022-11-28T18:14:11;12.93;;;9.27;;